Time;durP1;ratioP1;P1;durP2;ratioP2;P2;SDS_P1;SDS_P2;PMS_P1;PMS_P2;Temp;Humidity;BMP_temperature;BMP_pressure;BME280_temperature;BME280_humidity;BME280_pressure;Samples;Min_cycle;Max_cycle;Signal;HPM_P1;HPM_P2
2022/07/09 00:00:13;;;;;;;4.93;2.90;;;15.00;99.90;;;;;;5014772;28;20207;-71
2022/07/09 00:02:40;;;;;;;3.20;2.60;;;15.00;99.90;;;;;;5014031;28;20606;-71
2022/07/09 00:05:07;;;;;;;4.43;2.90;;;15.00;99.90;;;;;;5014167;28;20211;-71
2022/07/09 00:07:34;;;;;;;5.13;3.37;;;15.00;99.90;;;;;;5024574;28;20199;-71
2022/07/09 00:10:01;;;;;;;3.50;2.60;;;15.00;99.90;;;;;;5033899;28;20223;-71
2022/07/09 00:12:29;;;;;;;4.53;2.80;;;14.80;99.90;;;;;;5017766;28;20647;-71
2022/07/09 00:14:56;;;;;;;4.23;2.70;;;14.70;99.90;;;;;;5014961;28;20204;-72
2022/07/09 00:17:23;;;;;;;4.53;2.63;;;14.60;99.90;;;;;;5020662;28;20200;-71
2022/07/09 00:19:50;;;;;;;3.13;2.73;;;14.60;99.90;;;;;;5034070;28;20207;-72
2022/07/09 00:22:16;;;;;;;5.33;2.90;;;14.60;99.90;;;;;;5014040;28;20220;-71
2022/07/09 00:24:43;;;;;;;6.17;2.70;;;14.60;99.90;;;;;;5021734;28;20206;-72
2022/07/09 00:27:10;;;;;;;2.80;2.07;;;14.60;99.90;;;;;;5021983;28;20211;-71
2022/07/09 00:29:38;;;;;;;4.03;2.53;;;14.40;99.90;;;;;;5014421;28;20565;-71
2022/07/09 00:32:05;;;;;;;5.53;2.80;;;14.50;99.90;;;;;;5014059;28;20196;-71
2022/07/09 00:34:33;;;;;;;3.50;2.47;;;14.50;99.90;;;;;;5014244;28;20200;-72
2022/07/09 00:37:00;;;;;;;3.70;2.50;;;14.60;99.90;;;;;;5014225;28;20671;-72
2022/07/09 00:39:27;;;;;;;4.10;2.40;;;14.50;99.90;;;;;;5013652;28;20208;-72
2022/07/09 00:42:04;;;;;;;3.00;2.23;;;14.60;99.90;;;;;;5012864;28;20204;-71
2022/07/09 00:44:31;;;;;;;2.80;2.50;;;14.60;99.90;;;;;;5006849;28;20207;-72
2022/07/09 00:46:59;;;;;;;3.57;2.57;;;14.70;99.90;;;;;;5013131;28;20212;-71
2022/07/09 00:49:30;;;;;;;4.30;2.60;;;14.60;99.90;;;;;;5013680;28;20238;-71
2022/07/09 00:51:57;;;;;;;3.77;2.50;;;14.60;99.90;;;;;;5017032;28;20219;-71
2022/07/09 00:54:24;;;;;;;4.37;2.80;;;14.60;99.90;;;;;;5024492;28;20215;-72
2022/07/09 00:56:52;;;;;;;4.23;2.73;;;14.60;99.90;;;;;;5022791;28;20211;-71
2022/07/09 00:59:19;;;;;;;4.03;2.43;;;14.70;99.90;;;;;;5020595;28;20206;-72
2022/07/09 01:01:46;;;;;;;5.70;2.50;;;14.70;99.90;;;;;;5020827;28;20201;-72
2022/07/09 01:04:14;;;;;;;3.73;2.40;;;14.60;99.90;;;;;;5018532;28;20220;-72
2022/07/09 01:06:41;;;;;;;3.43;2.60;;;14.70;99.90;;;;;;5014305;28;20208;-71
2022/07/09 01:09:08;;;;;;;3.70;2.60;;;14.60;99.90;;;;;;5024068;28;20561;-72
2022/07/09 01:11:35;;;;;;;2.85;2.55;;;14.70;99.90;;;;;;5012188;28;20569;-71
2022/07/09 01:14:01;;;;;;;3.93;2.57;;;14.70;99.90;;;;;;4994870;28;20211;-71
2022/07/09 01:16:32;;;;;;;5.17;2.73;;;14.70;99.90;;;;;;5012513;28;20196;-72
2022/07/09 01:18:59;;;;;;;4.17;2.30;;;14.80;99.90;;;;;;5014065;28;20200;-72
2022/07/09 01:21:27;;;;;;;5.47;2.70;;;14.80;99.90;;;;;;5013364;28;20663;-71
2022/07/09 01:23:54;;;;;;;5.07;2.80;;;14.80;99.90;;;;;;5013405;28;20226;-71
2022/07/09 01:26:21;;;;;;;4.47;2.60;;;14.80;99.90;;;;;;5012779;28;20572;-72
2022/07/09 01:28:48;;;;;;;4.32;2.88;;;14.80;99.90;;;;;;5012028;28;20238;-72
2022/07/09 01:31:16;;;;;;;3.73;3.33;;;14.80;99.90;;;;;;5012775;28;20204;-71
2022/07/09 01:33:43;;;;;;;4.40;2.80;;;14.80;99.90;;;;;;5023855;28;20196;-72
2022/07/09 01:36:10;;;;;;;3.20;3.00;;;14.90;99.90;;;;;;5015826;28;20290;-72
2022/07/09 01:38:38;;;;;;;3.77;2.73;;;14.90;99.90;;;;;;5013520;28;20648;-72
2022/07/09 01:41:05;;;;;;;3.93;2.37;;;14.80;99.90;;;;;;5011664;28;20280;-72
2022/07/09 01:43:33;;;;;;;5.27;2.63;;;14.90;99.90;;;;;;5013244;28;20693;-71
2022/07/09 01:46:01;;;;;;;5.80;2.87;;;14.90;99.90;;;;;;5013372;28;20330;-71
2022/07/09 01:48:28;;;;;;;3.20;2.60;;;14.80;99.90;;;;;;5012612;28;20259;-71
2022/07/09 01:50:55;;;;;;;4.60;2.57;;;14.80;99.90;;;;;;5013105;28;20576;-71
2022/07/09 01:53:22;;;;;;;4.23;2.80;;;14.80;99.90;;;;;;5015643;28;20690;-71
2022/07/09 01:55:50;;;;;;;3.27;2.60;;;14.80;99.90;;;;;;5028561;28;20200;-72
2022/07/09 01:58:17;;;;;;;2.80;2.50;;;14.80;99.90;;;;;;5011829;28;20543;-72
2022/07/09 02:00:45;;;;;;;3.23;2.50;;;14.80;99.90;;;;;;5015981;28;20211;-71
2022/07/09 02:03:12;;;;;;;3.40;2.60;;;14.90;99.90;;;;;;5024414;28;20678;-72
2022/07/09 02:05:39;;;;;;;4.10;2.60;;;14.80;99.90;;;;;;5031755;28;20721;-71
2022/07/09 02:08:06;;;;;;;3.57;3.20;;;14.80;99.90;;;;;;4993324;28;20201;-71
2022/07/09 02:10:33;;;;;;;3.83;2.57;;;14.80;99.90;;;;;;5012364;28;20211;-72
2022/07/09 02:13:01;;;;;;;5.10;2.97;;;14.90;99.90;;;;;;5023509;28;20205;-72
2022/07/09 02:15:28;;;;;;;5.60;3.30;;;14.90;99.90;;;;;;5031958;28;20215;-71
2022/07/09 02:17:55;;;;;;;5.33;2.80;;;14.80;99.90;;;;;;5031637;28;20207;-72
2022/07/09 02:20:22;;;;;;;4.17;2.80;;;14.90;99.90;;;;;;5032427;28;20235;-72
2022/07/09 02:22:49;;;;;;;4.83;2.73;;;15.00;99.90;;;;;;5031535;28;20318;-72
2022/07/09 02:25:16;;;;;;;3.55;3.15;;;14.90;99.90;;;;;;5032358;28;20203;-71
2022/07/09 02:27:43;;;;;;;3.30;3.00;;;14.90;99.90;;;;;;5031729;28;20219;-71
2022/07/09 02:30:11;;;;;;;5.10;2.93;;;14.90;99.90;;;;;;5032304;28;20199;-72
2022/07/09 02:32:39;;;;;;;5.50;3.10;;;14.90;99.90;;;;;;5031427;28;20218;-72
2022/07/09 02:35:07;;;;;;;7.27;3.03;;;14.80;99.90;;;;;;5031818;28;20254;-71
2022/07/09 02:37:34;;;;;;;5.53;3.10;;;14.80;99.90;;;;;;5023882;28;20225;-72
2022/07/09 02:40:01;;;;;;;7.20;3.10;;;14.80;99.90;;;;;;5015445;28;20211;-72
2022/07/09 02:42:28;;;;;;;5.57;3.40;;;14.80;99.90;;;;;;5011355;28;20204;-72
2022/07/09 02:44:54;;;;;;;6.80;3.40;;;14.70;99.90;;;;;;5017319;28;20633;-72
2022/07/09 02:47:23;;;;;;;4.07;3.57;;;14.80;99.90;;;;;;5012144;28;20208;-72
2022/07/09 02:49:49;;;;;;;6.33;3.30;;;14.90;99.90;;;;;;5018523;28;20623;-72
2022/07/09 02:52:17;;;;;;;8.73;3.70;;;15.00;99.90;;;;;;5023229;28;20208;-71
2022/07/09 02:54:43;;;;;;;5.53;3.60;;;15.10;99.90;;;;;;5014143;28;20196;-71
2022/07/09 02:57:11;;;;;;;7.60;3.83;;;15.00;99.90;;;;;;5011387;28;20696;-72
2022/07/09 02:59:38;;;;;;;10.07;3.60;;;15.00;99.90;;;;;;5011679;28;20200;-72
2022/07/09 03:02:06;;;;;;;6.83;3.70;;;15.00;99.90;;;;;;5010532;28;20564;-72
2022/07/09 03:04:34;;;;;;;5.45;3.50;;;15.20;99.90;;;;;;5011924;28;20220;-72
2022/07/09 03:07:00;;;;;;;4.33;3.93;;;15.20;99.90;;;;;;5021724;28;20203;-72
2022/07/09 03:09:27;;;;;;;6.83;3.63;;;15.20;99.90;;;;;;5015404;28;20215;-71
2022/07/09 03:11:54;;;;;;;5.33;3.23;;;15.10;99.90;;;;;;5014944;28;20212;-71
2022/07/09 03:14:21;;;;;;;5.23;3.47;;;15.10;99.90;;;;;;5014857;28;20206;-71
2022/07/09 03:16:48;;;;;;;7.77;3.87;;;15.20;99.90;;;;;;5014238;28;20206;-71
2022/07/09 03:19:15;;;;;;;7.20;3.30;;;15.20;99.90;;;;;;5015434;28;20642;-67
2022/07/09 03:21:43;;;;;;;7.83;4.50;;;15.20;99.90;;;;;;5015454;28;20616;-67
2022/07/09 03:24:09;;;;;;;10.00;3.73;;;15.20;99.90;;;;;;5016815;28;20576;-67
2022/07/09 03:26:36;;;;;;;5.10;3.60;;;15.30;99.90;;;;;;5031772;28;20206;-67
2022/07/09 03:29:03;;;;;;;8.60;4.10;;;15.30;99.90;;;;;;5032883;28;20204;-68
2022/07/09 03:31:30;;;;;;;9.50;3.73;;;15.20;99.90;;;;;;5015855;28;20208;-67
2022/07/09 03:33:57;;;;;;;9.50;4.17;;;15.30;99.90;;;;;;5015583;28;20240;-68
2022/07/09 03:36:24;;;;;;;9.23;4.33;;;15.20;99.90;;;;;;5015655;28;20577;-67
2022/07/09 03:38:52;;;;;;;10.10;4.40;;;15.20;99.90;;;;;;5015781;28;20215;-67
2022/07/09 03:41:19;;;;;;;9.83;4.50;;;15.30;99.90;;;;;;5015549;28;20215;-68
2022/07/09 03:43:45;;;;;;;13.30;4.20;;;15.30;99.90;;;;;;5015139;28;20242;-67
2022/07/09 03:46:12;;;;;;;11.07;4.50;;;15.40;99.90;;;;;;5014886;28;20577;-67
2022/07/09 03:48:39;;;;;;;10.27;4.10;;;15.40;99.90;;;;;;5015250;28;20204;-68
2022/07/09 03:51:07;;;;;;;17.73;4.27;;;15.40;99.90;;;;;;5007653;28;20652;-68
2022/07/09 03:53:35;;;;;;;8.87;4.27;;;15.30;99.90;;;;;;5023557;28;20639;-67
2022/07/09 03:56:04;;;;;;;14.93;4.73;;;15.30;99.90;;;;;;5015012;28;20254;-67
2022/07/09 03:58:30;;;;;;;13.97;4.77;;;15.40;99.90;;;;;;5014660;28;20205;-67
2022/07/09 04:00:57;;;;;;;8.93;5.20;;;15.40;99.90;;;;;;5015293;28;20648;-67
2022/07/09 04:03:24;;;;;;;13.40;5.90;;;15.40;99.90;;;;;;5014752;28;20587;-67
2022/07/09 04:05:51;;;;;;;10.33;4.37;;;15.50;99.90;;;;;;5015414;28;20204;-67
2022/07/09 04:08:18;;;;;;;8.63;4.25;;;15.40;99.90;;;;;;5015113;28;20534;-67
2022/07/09 04:10:44;;;;;;;10.83;4.43;;;15.50;99.90;;;;;;5015053;28;20593;-67
2022/07/09 04:13:12;;;;;;;14.70;4.73;;;15.60;99.90;;;;;;5014636;28;20212;-67
2022/07/09 04:15:39;;;;;;;9.90;4.18;;;15.60;99.90;;;;;;5014500;28;20243;-67
2022/07/09 04:18:06;;;;;;;8.10;4.78;;;15.60;99.90;;;;;;5015002;28;20208;-67
2022/07/09 04:20:33;;;;;;;8.73;4.22;;;15.60;99.90;;;;;;5014430;28;20208;-67
2022/07/09 04:22:59;;;;;;;9.60;4.68;;;15.70;99.90;;;;;;5014726;28;20659;-67
2022/07/09 04:25:26;;;;;;;6.18;4.20;;;15.70;99.90;;;;;;5014254;28;20208;-67
2022/07/09 04:27:53;;;;;;;6.72;4.10;;;15.70;99.90;;;;;;5010252;28;20222;-67
2022/07/09 04:30:21;;;;;;;7.67;4.03;;;15.80;99.90;;;;;;5011299;28;20660;-67
2022/07/09 04:32:48;;;;;;;9.73;4.47;;;15.80;99.90;;;;;;5015345;28;20298;-67
2022/07/09 04:35:15;;;;;;;10.90;4.38;;;15.80;99.90;;;;;;5015697;28;20204;-68
2022/07/09 04:37:43;;;;;;;7.88;4.78;;;15.90;99.90;;;;;;5005187;28;20652;-67
2022/07/09 04:40:10;;;;;;;11.18;4.75;;;15.90;99.90;;;;;;5003236;28;20292;-67
2022/07/09 04:42:37;;;;;;;7.60;4.63;;;15.90;99.90;;;;;;5013033;28;20295;-68
2022/07/09 04:45:05;;;;;;;7.43;4.40;;;15.90;99.90;;;;;;5010898;28;20217;-67
2022/07/09 04:47:33;;;;;;;13.82;5.13;;;15.90;99.90;;;;;;5014662;28;20469;-67
2022/07/09 04:50:00;;;;;;;10.13;4.75;;;15.90;99.90;;;;;;5012537;28;20417;-67
2022/07/09 04:52:28;;;;;;;7.60;4.47;;;15.90;99.90;;;;;;5015538;28;20204;-67
2022/07/09 04:54:55;;;;;;;9.70;4.38;;;16.00;99.90;;;;;;5011924;28;20662;-67
2022/07/09 04:57:21;;;;;;;11.63;5.40;;;16.10;99.90;;;;;;5022011;28;20211;-67
2022/07/09 04:59:48;;;;;;;9.13;5.03;;;16.10;99.90;;;;;;5014449;28;20319;-67
2022/07/09 05:02:15;;;;;;;7.33;4.50;;;16.10;99.90;;;;;;5013349;28;20224;-68
2022/07/09 05:04:43;;;;;;;10.32;4.90;;;16.20;99.90;;;;;;5011216;28;20587;-67
2022/07/09 05:07:10;;;;;;;12.43;5.55;;;16.20;99.90;;;;;;5011845;28;20725;-67
2022/07/09 05:09:37;;;;;;;8.27;5.03;;;16.30;99.90;;;;;;5012209;28;20570;-67
2022/07/09 05:12:04;;;;;;;9.63;4.65;;;16.30;99.90;;;;;;5014544;28;20261;-67
2022/07/09 05:14:31;;;;;;;9.03;4.17;;;16.30;99.90;;;;;;5012597;28;20380;-67
2022/07/09 05:16:58;;;;;;;10.20;4.60;;;16.30;99.90;;;;;;5012651;28;20215;-67
2022/07/09 05:19:25;;;;;;;6.70;3.88;;;16.30;99.90;;;;;;5011842;28;20216;-67
2022/07/09 05:21:53;;;;;;;8.30;4.65;;;16.30;99.90;;;;;;5019257;28;20200;-67
2022/07/09 05:24:19;;;;;;;9.68;4.90;;;16.30;99.90;;;;;;5012022;28;20227;-67
2022/07/09 05:26:46;;;;;;;15.32;5.85;;;16.40;99.90;;;;;;5010491;28;20200;-67
2022/07/09 05:29:13;;;;;;;6.78;4.65;;;16.40;99.90;;;;;;5012152;28;20200;-67
2022/07/09 05:31:40;;;;;;;7.65;4.70;;;16.30;99.90;;;;;;5011493;28;20208;-67
2022/07/09 05:34:07;;;;;;;11.30;7.10;;;16.30;99.90;;;;;;5016517;28;20196;-67
2022/07/09 05:36:35;;;;;;;13.65;6.90;;;16.40;99.90;;;;;;5014269;28;20255;-67
2022/07/09 05:39:03;;;;;;;9.00;5.35;;;16.50;99.90;;;;;;5011803;28;20197;-67
2022/07/09 05:41:30;;;;;;;8.18;4.95;;;16.60;99.90;;;;;;5014938;28;20201;-67
2022/07/09 05:43:57;;;;;;;8.73;5.35;;;16.60;99.90;;;;;;5012624;28;20598;-68
2022/07/09 05:46:23;;;;;;;7.03;4.25;;;16.70;99.90;;;;;;5012553;28;20239;-68
2022/07/09 05:48:50;;;;;;;5.60;4.38;;;16.70;99.90;;;;;;5012280;28;20234;-68
2022/07/09 05:51:17;;;;;;;6.80;4.20;;;16.80;99.90;;;;;;5013453;28;20196;-67
2022/07/09 05:53:44;;;;;;;7.18;4.85;;;16.80;99.90;;;;;;5011370;28;20204;-67
2022/07/09 05:56:12;;;;;;;7.18;4.85;;;16.80;99.90;;;;;;5013332;28;20200;-67
2022/07/09 05:58:40;;;;;;;6.07;4.38;;;17.00;99.90;;;;;;5011132;28;20196;-67
2022/07/09 06:01:07;;;;;;;7.57;5.22;;;17.00;99.90;;;;;;5007802;28;20205;-67
2022/07/09 06:03:34;;;;;;;7.05;4.65;;;17.20;99.90;;;;;;5005880;28;20659;-67
2022/07/09 06:06:01;;;;;;;8.80;4.57;;;17.20;99.90;;;;;;5010770;28;20559;-67
2022/07/09 06:08:27;;;;;;;8.50;4.90;;;17.30;99.90;;;;;;5011301;28;20231;-67
2022/07/09 06:10:54;;;;;;;8.43;5.70;;;17.30;99.90;;;;;;5010904;28;20295;-68
2022/07/09 06:13:22;;;;;;;13.30;5.10;;;17.40;99.90;;;;;;5011199;28;20200;-67
2022/07/09 06:15:50;;;;;;;7.05;3.72;;;17.60;99.90;;;;;;5012277;28;20718;-68
2022/07/09 06:18:17;;;;;;;6.55;4.32;;;17.70;99.90;;;;;;5010174;28;20208;-68
2022/07/09 06:20:44;;;;;;;6.88;4.45;;;17.80;99.90;;;;;;5014965;28;20200;-67
2022/07/09 06:23:10;;;;;;;6.53;4.10;;;17.70;99.90;;;;;;5008872;28;20663;-67
2022/07/09 06:25:37;;;;;;;6.57;4.10;;;17.80;99.90;;;;;;5010438;28;20216;-67
2022/07/09 06:28:04;;;;;;;5.30;3.90;;;18.10;99.90;;;;;;5012067;28;20219;-67
2022/07/09 06:30:34;;;;;;;5.63;3.28;;;18.10;99.90;;;;;;5010482;28;20203;-67
2022/07/09 06:33:00;;;;;;;7.75;3.60;;;18.30;99.90;;;;;;5010930;28;20258;-68
2022/07/09 06:35:27;;;;;;;5.47;3.45;;;18.50;99.90;;;;;;5013838;28;20551;-67
2022/07/09 06:37:54;;;;;;;4.97;3.17;;;18.60;99.90;;;;;;5009900;28;20309;-71
2022/07/09 06:40:21;;;;;;;7.95;3.08;;;18.60;99.90;;;;;;5009010;28;20211;-71
2022/07/09 06:42:48;;;;;;;5.03;2.88;;;18.50;99.90;;;;;;5009763;28;20568;-71
2022/07/09 06:45:15;;;;;;;5.38;3.00;;;18.50;99.90;;;;;;5009577;28;20227;-70
2022/07/09 06:47:43;;;;;;;3.03;2.40;;;18.60;99.90;;;;;;5012132;28;20205;-71
2022/07/09 06:50:10;;;;;;;2.45;2.20;;;18.60;99.90;;;;;;5011581;28;20208;-71
2022/07/09 06:52:37;;;;;;;4.03;2.58;;;18.60;99.90;;;;;;5014047;28;20214;-71
2022/07/09 06:55:04;;;;;;;4.22;2.67;;;18.60;99.90;;;;;;5012691;28;20570;-71
2022/07/09 06:57:31;;;;;;;3.65;1.92;;;18.70;99.90;;;;;;5009928;28;20203;-71
2022/07/09 06:59:58;;;;;;;4.78;2.20;;;18.80;99.90;;;;;;5010968;28;20216;-71
2022/07/09 07:02:25;;;;;;;4.30;1.98;;;18.90;99.90;;;;;;5013078;28;20201;-71
2022/07/09 07:04:53;;;;;;;2.60;1.75;;;18.70;99.90;;;;;;5009859;28;20224;-70
2022/07/09 07:07:20;;;;;;;3.40;1.95;;;18.80;99.90;;;;;;5010491;28;20200;-72
2022/07/09 07:09:47;;;;;;;3.65;2.13;;;18.90;99.90;;;;;;5007728;28;20204;-71
2022/07/09 07:12:14;;;;;;;4.90;2.30;;;19.10;99.90;;;;;;5012443;28;20200;-71
2022/07/09 07:14:41;;;;;;;2.78;2.03;;;19.00;99.90;;;;;;5009846;28;20196;-71
2022/07/09 07:17:08;;;;;;;6.80;2.45;;;18.90;99.90;;;;;;5011130;28;20266;-71
2022/07/09 07:19:35;;;;;;;2.55;1.95;;;19.00;99.90;;;;;;5009993;28;20204;-71
2022/07/09 07:22:04;;;;;;;2.75;1.75;;;19.00;99.90;;;;;;5012078;28;20208;-70
2022/07/09 07:24:31;;;;;;;2.85;2.10;;;19.00;99.90;;;;;;5010578;28;20806;-72
2022/07/09 07:26:58;;;;;;;2.10;1.40;;;19.30;99.90;;;;;;5012761;28;20204;-71
2022/07/09 07:29:26;;;;;;;2.42;2.08;;;19.40;99.90;;;;;;5011044;28;20210;-71
2022/07/09 07:31:53;;;;;;;2.67;1.60;;;19.50;99.90;;;;;;5010423;28;20636;-71
2022/07/09 07:34:22;;;;;;;3.88;1.52;;;19.40;99.90;;;;;;5009386;28;20239;-72
2022/07/09 07:36:49;;;;;;;2.92;1.80;;;19.40;99.90;;;;;;5009307;28;20224;-72
2022/07/09 07:39:17;;;;;;;2.75;1.90;;;19.50;99.90;;;;;;5012864;28;20295;-71
2022/07/09 07:41:44;;;;;;;3.45;1.90;;;19.20;99.90;;;;;;5009363;28;20200;-71
2022/07/09 07:44:11;;;;;;;3.90;2.13;;;19.30;99.90;;;;;;5009952;28;20660;-71
2022/07/09 07:46:37;;;;;;;3.20;2.15;;;19.40;99.90;;;;;;5014214;28;20220;-71
2022/07/09 07:49:04;;;;;;;3.47;2.42;;;19.40;99.90;;;;;;5011123;28;20686;-71
2022/07/09 07:51:31;;;;;;;2.60;2.40;;;19.50;99.90;;;;;;5011229;28;20231;-72
2022/07/09 07:53:58;;;;;;;2.75;2.55;;;19.50;99.90;;;;;;5011667;28;20208;-71
2022/07/09 07:56:26;;;;;;;5.43;3.25;;;19.60;99.90;;;;;;5014550;28;20557;-71
2022/07/09 07:58:53;;;;;;;3.30;2.83;;;19.80;99.90;;;;;;5015692;28;20212;-71
2022/07/09 08:01:19;;;;;;;3.47;2.90;;;19.80;99.90;;;;;;5014824;28;20207;-71
2022/07/09 08:03:46;;;;;;;4.75;3.10;;;20.00;99.90;;;;;;5015591;28;20589;-71
2022/07/09 08:06:13;;;;;;;3.10;2.90;;;19.90;99.90;;;;;;5010539;28;20220;-71
2022/07/09 08:08:40;;;;;;;4.80;2.60;;;20.00;99.90;;;;;;5014893;28;20207;-72
2022/07/09 08:11:07;;;;;;;4.40;3.10;;;19.90;99.90;;;;;;5009773;28;20667;-71
2022/07/09 08:13:35;;;;;;;7.93;3.50;;;20.20;99.90;;;;;;5013274;28;20615;-71
2022/07/09 08:16:02;;;;;;;3.47;2.70;;;20.40;99.90;;;;;;5013202;28;20196;-72
2022/07/09 08:18:29;;;;;;;6.03;2.80;;;20.40;99.90;;;;;;5019952;28;20204;-71
2022/07/09 08:20:56;;;;;;;2.88;2.53;;;20.20;99.90;;;;;;5015152;28;20461;-71
2022/07/09 08:23:23;;;;;;;4.07;2.78;;;20.30;99.90;;;;;;5011321;28;20283;-71
2022/07/09 08:25:50;;;;;;;3.58;2.80;;;20.60;99.90;;;;;;5009039;28;20585;-71
2022/07/09 08:28:17;;;;;;;4.13;2.78;;;20.50;99.90;;;;;;5014462;28;20659;-71
2022/07/09 08:30:45;;;;;;;3.20;2.90;;;20.40;99.90;;;;;;5012955;28;20682;-71
2022/07/09 08:33:12;;;;;;;3.78;2.50;;;20.30;99.90;;;;;;5013011;28;20204;-71
2022/07/09 08:35:39;;;;;;;5.30;2.78;;;20.20;99.90;;;;;;5012366;28;20203;-72
2022/07/09 08:38:06;;;;;;;4.15;2.63;;;20.20;99.90;;;;;;5012456;28;20674;-71
2022/07/09 08:40:33;;;;;;;2.63;2.42;;;20.00;99.90;;;;;;5006960;28;20201;-71
2022/07/09 08:43:03;;;;;;;3.22;2.58;;;20.20;99.90;;;;;;5014373;28;20219;-71
2022/07/09 08:45:31;;;;;;;2.95;2.65;;;20.20;99.90;;;;;;5013351;28;20216;-71
2022/07/09 08:48:01;;;;;;;4.03;2.60;;;20.20;99.90;;;;;;5013173;28;20670;-70
2022/07/09 08:50:28;;;;;;;3.53;2.72;;;20.30;99.90;;;;;;5013611;28;20211;-70
2022/07/09 08:52:56;;;;;;;4.45;3.30;;;20.20;99.90;;;;;;5016267;28;20215;-71
2022/07/09 08:55:23;;;;;;;4.65;3.10;;;20.20;99.90;;;;;;5013340;28;20243;-71
2022/07/09 08:57:51;;;;;;;2.90;2.70;;;20.30;99.90;;;;;;5012606;28;20215;-70
2022/07/09 09:00:17;;;;;;;6.38;3.42;;;20.30;99.90;;;;;;5016218;28;20197;-71
2022/07/09 09:02:44;;;;;;;3.65;3.30;;;20.30;99.90;;;;;;5011440;28;20289;-71
2022/07/09 09:05:14;;;;;;;3.33;3.03;;;20.20;99.90;;;;;;5012502;28;20231;-71
2022/07/09 09:07:41;;;;;;;5.93;3.00;;;20.30;99.90;;;;;;5012585;28;20225;-71
2022/07/09 09:10:08;;;;;;;4.35;3.17;;;20.20;99.90;;;;;;5011649;28;20207;-71
2022/07/09 09:12:35;;;;;;;3.35;2.72;;;20.20;99.90;;;;;;5018940;28;20201;-70
2022/07/09 09:15:06;;;;;;;3.10;2.30;;;20.20;99.90;;;;;;5012244;28;20207;-70
2022/07/09 09:17:33;;;;;;;3.00;2.53;;;20.20;99.90;;;;;;5018645;28;20554;-71
2022/07/09 09:20:00;;;;;;;4.80;2.20;;;20.10;99.90;;;;;;5013871;28;20212;-71
2022/07/09 09:22:29;;;;;;;2.63;2.33;;;20.20;99.90;;;;;;5011049;28;20331;-70
2022/07/09 09:24:55;;;;;;;2.92;2.47;;;20.30;99.90;;;;;;5017086;28;20204;-70
2022/07/09 09:27:30;;;;;;;4.97;2.92;;;20.40;99.90;;;;;;5014116;28;20208;-71
2022/07/09 09:29:59;;;;;;;3.65;2.92;;;20.40;99.90;;;;;;5012410;28;20273;-71
2022/07/09 09:32:26;;;;;;;3.90;3.17;;;20.50;99.90;;;;;;5013220;28;20258;-70
2022/07/09 09:34:53;;;;;;;4.63;2.95;;;20.50;99.90;;;;;;5010333;28;20214;-72
2022/07/09 09:37:28;;;;;;;5.43;3.20;;;20.40;99.90;;;;;;5010993;28;20196;-70
2022/07/09 09:39:55;;;;;;;4.03;3.10;;;20.30;99.90;;;;;;5010439;28;20246;-71
2022/07/09 09:42:25;;;;;;;3.47;3.10;;;20.20;99.90;;;;;;5011042;28;20200;-70
2022/07/09 09:44:52;;;;;;;4.43;3.33;;;19.90;99.90;;;;;;5009743;28;20625;-71
2022/07/09 09:47:24;;;;;;;6.90;3.20;;;19.90;99.90;;;;;;5016594;28;20227;-71
2022/07/09 09:49:51;;;;;;;4.85;2.90;;;19.80;99.90;;;;;;5009441;28;20208;-71
2022/07/09 09:52:20;;;;;;;5.30;2.88;;;19.90;99.90;;;;;;5014098;28;20255;-71
2022/07/09 09:54:51;;;;;;;6.40;3.03;;;20.00;99.90;;;;;;5011614;28;20621;-71
2022/07/09 09:57:18;;;;;;;3.55;3.03;;;20.30;99.90;;;;;;5008094;28;20651;-68
2022/07/09 09:59:46;;;;;;;4.78;3.38;;;20.60;99.90;;;;;;5011337;28;20212;-67
2022/07/09 10:02:14;;;;;;;5.38;2.55;;;21.00;99.90;;;;;;5013470;28;20211;-67
2022/07/09 10:04:43;;;;;;;4.20;2.83;;;21.20;99.90;;;;;;5012045;28;20224;-67
2022/07/09 10:07:13;;;;;;;6.15;2.78;;;21.20;99.90;;;;;;5013289;28;20227;-67
2022/07/09 10:09:40;;;;;;;3.00;2.70;;;21.20;99.90;;;;;;5009987;28;20204;-67
2022/07/09 10:12:10;;;;;;;4.00;2.58;;;21.40;99.90;;;;;;5013178;28;20284;-67
2022/07/09 10:14:38;;;;;;;3.80;2.47;;;21.10;99.90;;;;;;5011867;28;20200;-67
2022/07/09 10:17:13;;;;;;;3.67;2.30;;;21.10;99.90;;;;;;5011139;28;20193;-67
2022/07/09 10:19:51;;;;;;;3.42;2.22;;;21.10;99.90;;;;;;5015159;28;20200;-67
2022/07/09 10:22:18;;;;;;;3.83;1.98;;;21.10;99.90;;;;;;5007393;28;20200;-67
2022/07/09 10:24:46;;;;;;;4.47;1.88;;;21.50;99.90;;;;;;5007646;28;20216;-67
2022/07/09 10:27:14;;;;;;;2.28;2.00;;;21.50;99.90;;;;;;5013556;28;20255;-67
2022/07/09 10:29:55;;;;;;;2.25;1.80;;;21.70;99.90;;;;;;5010314;28;20200;-67
2022/07/09 10:32:25;;;;;;;2.15;1.95;;;21.60;99.90;;;;;;5007008;28;20199;-67
2022/07/09 10:34:57;;;;;;;3.40;1.90;;;21.50;99.90;;;;;;5010665;28;20200;-67
2022/07/09 10:37:35;;;;;;;1.90;1.70;;;21.70;99.90;;;;;;5010146;28;20220;-67
2022/07/09 10:40:12;;;;;;;2.58;1.83;;;21.90;99.90;;;;;;5005767;28;20196;-67
2022/07/09 10:42:41;;;;;;;2.60;1.70;;;21.60;99.40;;;;;;5010646;28;20204;-67
2022/07/09 10:45:26;;;;;;;2.10;2.00;;;21.50;94.70;;;;;;5016745;28;20204;-67
2022/07/09 10:47:58;;;;;;;2.83;2.20;;;22.00;95.00;;;;;;5009151;28;20593;-67
2022/07/09 10:50:25;;;;;;;2.85;2.17;;;23.00;92.90;;;;;;5015605;28;20235;-67
2022/07/09 10:52:53;;;;;;;2.25;1.70;;;22.60;91.30;;;;;;5011731;28;20208;-67
2022/07/09 10:55:21;;;;;;;1.67;1.58;;;22.20;92.50;;;;;;5014699;28;20200;-67
2022/07/09 10:57:49;;;;;;;2.05;1.70;;;22.10;92.60;;;;;;5007183;28;20647;-67
2022/07/09 11:00:16;;;;;;;2.15;1.90;;;22.30;90.10;;;;;;5010927;28;20204;-67
2022/07/09 11:03:03;;;;;;;1.48;1.38;;;22.30;82.20;;;;;;5009514;28;20517;-67
2022/07/09 11:05:31;;;;;;;1.80;1.70;;;22.10;81.50;;;;;;5008046;28;20224;-67
2022/07/09 11:08:01;;;;;;;1.50;1.40;;;22.20;83.30;;;;;;5012014;28;20211;-67
2022/07/09 11:10:29;;;;;;;3.17;1.75;;;22.10;89.00;;;;;;5010918;28;20674;-67
2022/07/09 11:12:58;;;;;;;1.83;1.40;;;21.80;85.10;;;;;;5013908;28;20584;-67
2022/07/09 11:15:27;;;;;;;1.88;1.77;;;22.20;83.40;;;;;;5010394;28;20196;-67
2022/07/09 11:17:59;;;;;;;1.65;1.50;;;22.70;79.40;;;;;;5010085;28;20201;-67
2022/07/09 11:20:27;;;;;;;1.95;1.50;;;23.00;73.80;;;;;;5015444;28;20258;-67
2022/07/09 11:22:56;;;;;;;1.52;1.42;;;22.70;72.50;;;;;;5011453;28;20215;-67
2022/07/09 11:25:24;;;;;;;1.58;1.30;;;22.80;73.90;;;;;;5006488;28;20201;-67
2022/07/09 11:27:51;;;;;;;1.60;1.50;;;22.60;72.40;;;;;;5010935;28;20250;-67
2022/07/09 11:30:19;;;;;;;1.58;1.33;;;22.70;71.90;;;;;;5016673;28;20570;-67
2022/07/09 11:32:47;;;;;;;1.85;1.45;;;23.40;72.30;;;;;;5013524;28;20690;-67
2022/07/09 11:35:24;;;;;;;3.65;1.60;;;23.80;69.40;;;;;;5014416;28;20204;-67
2022/07/09 11:37:50;;;;;;;2.83;1.30;;;24.20;69.80;;;;;;5013334;28;20204;-67
2022/07/09 11:40:18;;;;;;;1.38;1.38;;;23.70;65.10;;;;;;5013745;28;20200;-67
2022/07/09 11:42:45;;;;;;;2.00;1.80;;;23.70;67.60;;;;;;5014591;28;20212;-67
2022/07/09 11:45:12;;;;;;;1.50;1.40;;;23.60;64.70;;;;;;5014521;28;20571;-67
2022/07/09 11:47:41;;;;;;;1.75;1.40;;;23.30;63.70;;;;;;5015518;28;20590;-67
2022/07/09 11:50:10;;;;;;;1.63;1.52;;;23.30;63.50;;;;;;5012200;28;20204;-67
2022/07/09 11:52:38;;;;;;;2.05;1.48;;;23.10;61.30;;;;;;5013337;28;20200;-67
2022/07/09 11:55:06;;;;;;;1.20;1.20;;;23.00;63.60;;;;;;5017010;28;20200;-67
2022/07/09 11:57:35;;;;;;;2.58;1.70;;;22.80;64.50;;;;;;5015176;28;20655;-67
2022/07/09 12:00:04;;;;;;;2.10;1.40;;;23.10;63.80;;;;;;5017242;28;20208;-67
2022/07/09 12:02:32;;;;;;;1.65;1.55;;;23.20;58.30;;;;;;5015670;28;20659;-67
2022/07/09 12:05:03;;;;;;;1.40;1.30;;;23.30;59.40;;;;;;5020793;28;20667;-67
2022/07/09 12:07:30;;;;;;;1.30;1.20;;;23.40;61.00;;;;;;5028554;28;20301;-67
2022/07/09 12:10:01;;;;;;;2.28;1.20;;;23.90;58.70;;;;;;5017404;28;20220;-67
2022/07/09 12:12:29;;;;;;;1.48;1.33;;;23.90;61.10;;;;;;5008984;28;20655;-67
2022/07/09 12:14:56;;;;;;;2.92;1.30;;;24.10;56.00;;;;;;5018157;28;20642;-67
2022/07/09 12:17:24;;;;;;;3.13;1.60;;;24.30;58.40;;;;;;5015355;28;20196;-67
2022/07/09 12:19:51;;;;;;;9.23;2.40;;;24.50;55.40;;;;;;5025700;28;20208;-67
2022/07/09 12:22:20;;;;;;;1.65;1.50;;;23.90;56.40;;;;;;5034416;28;20670;-67
2022/07/09 12:24:47;;;;;;;1.60;1.50;;;24.70;54.00;;;;;;5014620;28;20200;-67
2022/07/09 12:27:14;;;;;;;1.67;1.27;;;24.80;49.70;;;;;;5013850;28;20235;-67
2022/07/09 12:29:41;;;;;;;3.40;1.17;;;24.70;48.10;;;;;;5014201;28;20200;-67
2022/07/09 12:32:08;;;;;;;1.48;1.33;;;24.70;48.60;;;;;;5016561;28;20821;-67
2022/07/09 12:34:35;;;;;;;10.40;3.72;;;24.30;45.00;;;;;;5031706;28;20199;-67
2022/07/09 12:37:03;;;;;;;2.53;1.00;;;25.10;45.60;;;;;;5026346;28;20204;-67
2022/07/09 12:39:31;;;;;;;1.27;1.25;;;25.80;44.20;;;;;;5032376;28;20203;-67
2022/07/09 12:41:58;;;;;;;2.22;1.85;;;25.90;35.10;;;;;;5011831;28;20319;-67
2022/07/09 12:44:25;;;;;;;1.10;1.10;;;26.00;37.40;;;;;;5013824;28;20208;-67
2022/07/09 12:46:53;;;;;;;1.83;1.20;;;25.90;34.80;;;;;;5014070;28;20220;-67